Terminal Aerodrome Forecast
Issued by NWS

Home | Current Version | Previous Version | Text Only | Print | Product List | Glossary On
Versions: 1 2 3 4 5 6 7 8 9 10 11 12 13 14 15 16
000
FTUS43 KICT 020500
TAFCNU
TAF
KCNU 020520Z 0206/0306 05010KT P6SM VCTS SCT010 OVC025CB
      TEMPO 0206/0210 3SM +TSRA BKN010 OVC025CB
     FM021100 14007KT P6SM FEW005
      TEMPO 0211/0213 3SM BR BKN005
     FM021600 17008KT P6SM SCT040
     FM022100 13008KT P6SM VCTS SCT035CB BKN060=

USA.gov is the U.S. government's official web portal to all federal, state and local government web resources and services.